createdAt,value
2018-07-03T00:01:40.434Z,16.92
2018-07-03T00:04:09.859Z,16.81
2018-07-03T00:06:39.059Z,16.78
2018-07-03T00:09:09.472Z,16.48
2018-07-03T00:11:38.622Z,16.30
2018-07-03T00:14:07.795Z,16.34
2018-07-03T00:16:42.334Z,16.32
2018-07-03T00:19:11.555Z,16.28
2018-07-03T00:21:41.167Z,16.43
2018-07-03T00:24:10.310Z,16.41
2018-07-03T00:26:39.623Z,16.44
2018-07-03T00:29:08.783Z,16.36
2018-07-03T00:31:38.027Z,16.22
2018-07-03T00:34:07.407Z,16.21
2018-07-03T00:36:36.583Z,16.20
2018-07-03T00:39:07.855Z,16.01
2018-07-03T00:41:37.071Z,15.99
2018-07-03T00:44:06.279Z,16.07
2018-07-03T00:46:35.598Z,16.07
2018-07-03T00:49:04.951Z,16.01
2018-07-03T00:51:34.099Z,15.82
2018-07-03T00:54:03.391Z,15.72
2018-07-03T00:56:32.595Z,15.73
2018-07-03T00:59:01.879Z,15.59
2018-07-03T01:01:31.052Z,15.63
2018-07-03T01:04:00.651Z,15.65
2018-07-03T01:06:29.952Z,15.59
2018-07-03T01:08:59.388Z,15.60
2018-07-03T01:11:28.646Z,15.50
2018-07-03T01:13:58.093Z,15.57
2018-07-03T01:16:27.243Z,15.66
2018-07-03T01:18:56.595Z,15.51
2018-07-03T01:21:26.016Z,15.50
2018-07-03T01:23:55.215Z,15.55
2018-07-03T01:26:25.492Z,15.62
2018-07-03T01:28:55.119Z,15.65
2018-07-03T01:31:24.802Z,15.57
2018-07-03T01:33:53.975Z,15.53
2018-07-03T01:36:23.139Z,15.48
2018-07-03T01:38:52.687Z,15.35
2018-07-03T01:41:21.879Z,15.31
2018-07-03T01:43:51.340Z,15.40
2018-07-03T01:46:20.635Z,15.42
2018-07-03T01:48:49.825Z,15.46
2018-07-03T01:51:18.994Z,15.45
2018-07-03T01:53:48.152Z,15.47
2018-07-03T01:56:17.667Z,15.52
2018-07-03T01:58:47.186Z,15.59
2018-07-03T02:01:16.495Z,15.75
2018-07-03T02:03:45.647Z,15.80
2018-07-03T02:06:14.815Z,15.66
2018-07-03T02:08:44.038Z,15.70
2018-07-03T02:11:13.723Z,15.68
2018-07-03T02:13:42.978Z,15.63
2018-07-03T02:16:12.163Z,15.62
2018-07-03T02:18:42.127Z,15.61
2018-07-03T02:21:11.686Z,15.49
2018-07-03T02:23:41.051Z,15.51
2018-07-03T02:26:10.375Z,15.40
2018-07-03T02:28:39.574Z,15.53
2018-07-03T02:31:08.767Z,15.57
2018-07-03T02:33:38.040Z,15.57
2018-07-03T02:36:07.251Z,15.43
2018-07-03T02:38:36.424Z,15.39
2018-07-03T02:41:05.676Z,15.35
2018-07-03T02:43:34.848Z,15.34
2018-07-03T02:46:04.520Z,15.34
2018-07-03T02:48:33.695Z,15.43
2018-07-03T02:51:04.363Z,15.50
2018-07-03T02:53:33.705Z,15.38
2018-07-03T02:56:03.035Z,15.47
2018-07-03T02:58:32.244Z,15.43
2018-07-03T03:01:01.473Z,15.57
2018-07-03T03:03:30.666Z,15.54
2018-07-03T03:05:59.865Z,15.48
2018-07-03T03:08:29.154Z,15.55
2018-07-03T03:10:58.346Z,15.63
2018-07-03T03:13:27.521Z,15.74
2018-07-03T03:15:56.712Z,15.81
2018-07-03T03:18:26.216Z,15.82
2018-07-03T03:20:55.387Z,15.77
2018-07-03T03:23:24.707Z,15.92
2018-07-03T03:25:53.867Z,15.96
2018-07-03T03:28:23.211Z,15.99
2018-07-03T03:30:52.483Z,16.04
2018-07-03T03:33:21.756Z,16.14
2018-07-03T03:35:50.939Z,16.15
2018-07-03T03:38:20.218Z,16.17
2018-07-03T03:40:49.699Z,16.07
2018-07-03T03:43:19.235Z,16.16
2018-07-03T03:45:48.736Z,16.23
2018-07-03T03:48:18.187Z,16.23
2018-07-03T03:50:47.355Z,16.25
2018-07-03T03:53:16.530Z,16.16
2018-07-03T03:55:45.711Z,16.09
2018-07-03T03:58:15.237Z,16.23
2018-07-03T04:00:44.415Z,16.23
2018-07-03T04:03:13.606Z,16.35
2018-07-03T04:05:42.783Z,16.39
2018-07-03T04:08:12.235Z,16.46
2018-07-03T04:10:41.403Z,16.49
2018-07-03T04:13:10.727Z,16.51
2018-07-03T04:15:40.231Z,16.47
2018-07-03T04:18:09.643Z,16.45
2018-07-03T04:20:38.819Z,16.48
2018-07-03T04:23:07.999Z,16.49
2018-07-03T04:25:37.235Z,16.56
2018-07-03T04:28:06.735Z,16.59
2018-07-03T04:30:36.279Z,16.61
2018-07-03T04:33:05.988Z,16.62
2018-07-03T04:35:35.171Z,16.74
2018-07-03T04:38:04.375Z,16.83
2018-07-03T04:40:33.893Z,16.84
2018-07-03T04:43:03.667Z,16.99
2018-07-03T04:45:33.038Z,16.99
2018-07-03T04:48:02.185Z,17.03
2018-07-03T04:50:31.487Z,17.12
2018-07-03T04:53:00.751Z,17.23
2018-07-03T04:55:30.298Z,17.28
2018-07-03T04:57:59.883Z,17.30
2018-07-03T05:00:29.671Z,17.41
2018-07-03T05:02:59.012Z,17.46
2018-07-03T05:05:28.338Z,17.58
2018-07-03T05:07:57.502Z,17.65
2018-07-03T05:10:26.694Z,17.80
2018-07-03T05:12:55.840Z,17.91
2018-07-03T05:15:25.004Z,17.95
2018-07-03T05:17:54.163Z,18.08
2018-07-03T05:20:23.335Z,18.11
2018-07-03T05:22:52.487Z,18.10
2018-07-03T05:25:21.859Z,18.17
2018-07-03T05:27:51.011Z,18.22
2018-07-03T05:30:20.403Z,18.29
2018-07-03T05:32:49.563Z,18.35
2018-07-03T05:35:18.748Z,18.49
2018-07-03T05:37:47.930Z,18.55
2018-07-03T05:40:17.098Z,18.66
2018-07-03T05:42:46.276Z,18.84
2018-07-03T05:45:15.451Z,19.07
2018-07-03T05:47:44.943Z,19.28
2018-07-03T05:50:14.119Z,19.37
2018-07-03T05:52:43.297Z,19.53
2018-07-03T05:55:12.851Z,19.61
2018-07-03T05:57:42.036Z,19.80
2018-07-03T06:00:11.243Z,20.17
2018-07-03T06:02:40.828Z,21.75
2018-07-03T06:05:09.971Z,22.54
2018-07-03T06:07:39.159Z,23.03
2018-07-03T06:10:08.312Z,24.30
2018-07-03T06:12:37.509Z,24.20
2018-07-03T06:15:07.076Z,24.90
2018-07-03T06:17:36.258Z,25.23
2018-07-03T06:20:06.787Z,24.96
2018-07-03T06:22:35.963Z,24.39
2018-07-03T06:25:05.415Z,25.29
2018-07-03T06:27:34.895Z,25.59
2018-07-03T06:30:04.206Z,26.37
2018-07-03T06:32:33.815Z,27.12
2018-07-03T06:35:03.339Z,26.84
2018-07-03T06:37:32.884Z,27.36
2018-07-03T06:40:02.235Z,27.14
2018-07-03T06:42:31.411Z,26.87
2018-07-03T06:45:00.791Z,27.24
2018-07-03T06:47:29.969Z,26.42
2018-07-03T06:49:59.391Z,27.90
2018-07-03T06:52:28.891Z,28.58
2018-07-03T06:54:58.037Z,28.79
2018-07-03T06:57:27.715Z,28.30
2018-07-03T06:59:56.999Z,28.92
2018-07-03T07:02:26.163Z,29.25
2018-07-03T07:04:55.330Z,29.70
2018-07-03T07:07:24.863Z,29.66
2018-07-03T07:09:54.399Z,30.11
2018-07-03T07:12:23.568Z,30.60
2018-07-03T07:14:52.787Z,29.51
2018-07-03T07:17:21.927Z,29.79
2018-07-03T07:19:51.103Z,30.16
2018-07-03T07:22:20.255Z,31.21
2018-07-03T07:24:49.427Z,30.72
2018-07-03T07:27:18.591Z,30.28
2018-07-03T07:29:47.775Z,30.31
2018-07-03T07:32:16.923Z,29.70
2018-07-03T07:34:46.876Z,30.81
2018-07-03T07:37:16.020Z,30.48
2018-07-03T07:39:45.182Z,31.00
2018-07-03T07:42:14.359Z,30.76
2018-07-03T07:44:43.543Z,30.63
2018-07-03T07:47:12.727Z,30.18
2018-07-03T07:49:41.931Z,31.14
2018-07-03T07:52:11.067Z,32.43
2018-07-03T07:54:40.231Z,31.94
2018-07-03T07:57:09.383Z,31.27
2018-07-03T07:59:38.543Z,30.63
2018-07-03T08:02:08.069Z,31.60
2018-07-03T08:04:37.447Z,31.93
2018-07-03T08:07:07.183Z,30.67
2018-07-03T08:09:36.430Z,32.55
2018-07-03T08:12:05.806Z,32.96
2018-07-03T08:14:34.950Z,33.38
2018-07-03T08:17:04.216Z,32.50
2018-07-03T08:19:33.371Z,32.82
2018-07-03T08:22:02.564Z,33.26
2018-07-03T08:24:31.715Z,34.43
2018-07-03T08:27:00.894Z,32.31
2018-07-03T08:29:30.407Z,33.17
2018-07-03T08:31:59.579Z,32.32
2018-07-03T08:34:28.751Z,32.33
2018-07-03T08:36:57.932Z,32.21
2018-07-03T08:39:27.083Z,33.61
2018-07-03T08:41:56.375Z,34.22
2018-07-03T08:44:25.897Z,34.02
2018-07-03T08:46:55.127Z,35.13
2018-07-03T08:49:24.301Z,31.99
2018-07-03T08:51:53.524Z,33.14
2018-07-03T08:54:22.715Z,33.72
2018-07-03T08:56:51.919Z,34.84
2018-07-03T08:59:21.390Z,35.30
2018-07-03T09:01:50.945Z,35.81
2018-07-03T09:04:20.243Z,38.18
2018-07-03T09:06:49.750Z,37.32
2018-07-03T09:09:18.942Z,36.28
2018-07-03T09:11:48.259Z,35.64
2018-07-03T09:14:17.455Z,36.33
2018-07-03T09:16:46.643Z,36.82
2018-07-03T09:19:15.917Z,38.33
2018-07-03T09:21:45.279Z,38.39
2018-07-03T09:24:14.759Z,38.00
2018-07-03T09:26:44.028Z,39.00
2018-07-03T09:29:13.212Z,39.40
2018-07-03T09:31:42.383Z,39.03
2018-07-03T09:34:11.807Z,37.58
2018-07-03T09:36:40.979Z,36.25
2018-07-03T09:39:10.917Z,37.92
2018-07-03T09:41:40.599Z,37.78
2018-07-03T09:44:10.236Z,38.04
2018-07-03T09:46:39.418Z,39.17
2018-07-03T09:49:09.052Z,38.55
2018-07-03T09:51:38.371Z,39.26
2018-07-03T09:54:07.839Z,38.51
2018-07-03T09:56:37.016Z,39.29
2018-07-03T09:59:06.483Z,37.43
2018-07-03T10:01:35.676Z,38.06
2018-07-03T10:04:04.891Z,37.66
2018-07-03T10:06:34.071Z,38.24
2018-07-03T10:09:03.344Z,37.53
2018-07-03T10:11:32.975Z,38.12
2018-07-03T10:14:02.480Z,37.68
2018-07-03T10:16:31.639Z,39.08
2018-07-03T10:19:01.651Z,38.98
2018-07-03T10:21:31.168Z,39.34
2018-07-03T10:24:00.363Z,39.00
2018-07-03T10:26:29.565Z,40.26
2018-07-03T10:28:59.894Z,41.05
2018-07-03T10:31:29.099Z,39.49
2018-07-03T10:33:58.314Z,39.79
2018-07-03T10:36:27.783Z,38.98
2018-07-03T10:38:57.015Z,40.12
2018-07-03T10:41:26.435Z,39.41
2018-07-03T10:43:56.068Z,38.25
2018-07-03T10:46:25.291Z,38.77
2018-07-03T10:48:54.573Z,39.21
2018-07-03T10:51:23.771Z,38.90
2018-07-03T10:53:52.956Z,38.13
2018-07-03T10:56:22.617Z,38.49
2018-07-03T10:58:52.461Z,39.98
2018-07-03T11:01:21.651Z,40.08
2018-07-03T11:03:51.638Z,40.27
2018-07-03T11:06:20.828Z,41.19
2018-07-03T11:08:50.007Z,40.33
2018-07-03T11:11:19.231Z,40.33
2018-07-03T11:13:48.539Z,41.55
2018-07-03T11:16:17.715Z,41.68
2018-07-03T11:18:46.915Z,39.68
2018-07-03T11:21:16.148Z,40.62
2018-07-03T11:23:45.328Z,40.14
2018-07-03T11:26:14.579Z,41.16
2018-07-03T11:28:43.968Z,41.00
2018-07-03T11:31:13.155Z,41.95
2018-07-03T11:33:42.600Z,41.84
2018-07-03T11:36:12.096Z,39.52
2018-07-03T11:38:41.279Z,41.20
2018-07-03T11:41:10.485Z,40.88
2018-07-03T11:43:39.669Z,41.20
2018-07-03T11:46:08.883Z,40.87
2018-07-03T11:48:38.068Z,40.13
2018-07-03T11:51:07.360Z,40.07
2018-07-03T11:53:36.607Z,40.53
2018-07-03T11:56:06.284Z,41.71
2018-07-03T11:58:35.479Z,40.95
2018-07-03T12:01:04.715Z,40.06
2018-07-03T12:03:34.031Z,41.91
2018-07-03T12:06:03.268Z,41.72
2018-07-03T12:08:32.627Z,41.89
2018-07-03T12:11:02.100Z,40.95
2018-07-03T12:13:31.320Z,42.54
2018-07-03T12:16:00.495Z,41.65
2018-07-03T12:18:34.975Z,42.20
2018-07-03T12:21:04.163Z,41.34
2018-07-03T12:23:33.387Z,41.33
2018-07-03T12:26:03.275Z,40.38
2018-07-03T12:28:32.508Z,38.91
2018-07-03T12:31:01.713Z,40.18
2018-07-03T12:33:30.922Z,39.74
2018-07-03T12:36:00.155Z,41.97
2018-07-03T12:38:29.347Z,41.82
2018-07-03T12:40:58.519Z,39.18
2018-07-03T12:43:27.719Z,38.45
2018-07-03T12:45:56.883Z,38.76
2018-07-03T12:48:26.223Z,39.77
2018-07-03T12:50:55.382Z,34.87
2018-07-03T12:53:24.687Z,36.00
2018-07-03T12:55:53.922Z,36.16
2018-07-03T12:58:23.227Z,35.45
2018-07-03T13:00:52.419Z,37.69
2018-07-03T13:03:21.656Z,40.25
2018-07-03T13:05:51.171Z,40.01
2018-07-03T13:08:20.347Z,37.56
2018-07-03T13:10:49.536Z,39.31
2018-07-03T13:13:18.763Z,40.23
2018-07-03T13:15:48.015Z,39.92
2018-07-03T13:18:20.083Z,38.07
2018-07-03T13:20:50.458Z,37.74
2018-07-03T13:23:20.096Z,39.02
2018-07-03T13:25:49.291Z,40.59
2018-07-03T13:28:18.782Z,38.96
2018-07-03T13:30:48.615Z,39.50
2018-07-03T13:33:17.775Z,40.42
2018-07-03T13:35:46.975Z,39.91
2018-07-03T13:38:16.171Z,38.67
2018-07-03T13:40:45.375Z,39.66
2018-07-03T13:43:14.692Z,40.42
2018-07-03T13:45:43.931Z,40.75
2018-07-03T13:48:13.252Z,40.08
2018-07-03T13:50:42.458Z,39.17
2018-07-03T13:53:11.824Z,39.59
2018-07-03T13:55:41.293Z,41.15
2018-07-03T13:58:10.487Z,40.28
2018-07-03T14:00:39.671Z,39.32
2018-07-03T14:03:08.859Z,40.04
2018-07-03T14:05:38.171Z,40.53
2018-07-03T14:08:07.455Z,40.53
2018-07-03T14:10:36.594Z,39.03
2018-07-03T14:13:06.387Z,39.82
2018-07-03T14:15:35.562Z,38.99
2018-07-03T14:18:04.791Z,39.51
2018-07-03T14:20:33.914Z,39.42
2018-07-03T14:23:03.347Z,39.32
2018-07-03T14:25:32.827Z,38.85
2018-07-03T14:28:02.043Z,38.00
2018-07-03T14:30:31.692Z,38.27
2018-07-03T14:33:00.863Z,37.94
2018-07-03T14:35:30.036Z,37.66
2018-07-03T14:37:59.867Z,37.58
2018-07-03T14:40:29.039Z,37.24
2018-07-03T14:42:58.355Z,36.68
2018-07-03T14:45:27.843Z,36.75
2018-07-03T14:47:57.269Z,37.12
2018-07-03T14:50:26.423Z,36.46
2018-07-03T14:52:55.635Z,36.52
2018-07-03T14:55:24.794Z,36.26
2018-07-03T14:57:54.311Z,35.88
2018-07-03T15:00:23.506Z,35.80
2018-07-03T15:02:52.951Z,36.01
2018-07-03T15:05:22.514Z,36.10
2018-07-03T15:07:52.065Z,35.04
2018-07-03T15:10:21.262Z,34.73
2018-07-03T15:12:50.491Z,34.68
2018-07-03T15:15:19.887Z,34.81
2018-07-03T15:17:49.047Z,34.47
2018-07-03T15:20:18.247Z,34.48
2018-07-03T15:22:47.391Z,33.85
2018-07-03T15:25:16.866Z,33.35
2018-07-03T15:27:46.057Z,33.35
2018-07-03T15:30:17.715Z,33.43
2018-07-03T15:32:46.867Z,33.55
2018-07-03T15:35:16.132Z,33.39
2018-07-03T15:37:45.604Z,33.42
2018-07-03T15:40:14.815Z,32.59
2018-07-03T15:42:44.008Z,32.55
2018-07-03T15:45:14.655Z,33.06
2018-07-03T15:47:43.838Z,32.84
2018-07-03T15:50:13.883Z,32.69
2018-07-03T15:52:43.054Z,32.91
2018-07-03T15:55:12.247Z,32.86
2018-07-03T15:57:41.459Z,32.35
2018-07-03T16:00:13.295Z,32.63
2018-07-03T16:02:51.365Z,32.52
2018-07-03T16:05:31.875Z,32.21
2018-07-03T16:08:06.456Z,32.32
2018-07-03T16:10:35.640Z,32.19
2018-07-03T16:13:05.676Z,31.71
2018-07-03T16:15:34.895Z,32.16
2018-07-03T16:18:04.078Z,32.21
2018-07-03T16:20:39.717Z,31.96
2018-07-03T16:23:09.071Z,32.18
2018-07-03T16:25:39.051Z,32.17
2018-07-03T16:28:08.367Z,31.84
2018-07-03T16:30:37.995Z,32.11
2018-07-03T16:33:07.451Z,32.15
2018-07-03T16:35:36.559Z,31.91
2018-07-03T16:38:05.987Z,31.73
2018-07-03T16:40:35.170Z,31.43
2018-07-03T16:43:04.386Z,31.70
2018-07-03T16:45:33.741Z,31.66
2018-07-03T16:48:02.851Z,31.49
2018-07-03T16:50:32.047Z,31.65
2018-07-03T16:53:01.612Z,31.21
2018-07-03T16:55:30.859Z,31.24
2018-07-03T16:58:00.188Z,31.23
2018-07-03T17:00:29.734Z,31.32
2018-07-03T17:02:58.907Z,31.07
2018-07-03T17:05:28.068Z,31.04
2018-07-03T17:07:57.256Z,30.90
2018-07-03T17:10:26.421Z,30.81
2018-07-03T17:12:55.847Z,30.91
2018-07-03T17:15:25.028Z,30.80
2018-07-03T17:17:54.207Z,30.80
2018-07-03T17:20:23.352Z,30.69
2018-07-03T17:22:52.551Z,30.52
2018-07-03T17:25:21.727Z,30.31
2018-07-03T17:27:50.928Z,30.24
2018-07-03T17:30:20.076Z,30.26
2018-07-03T17:32:49.239Z,29.99
2018-07-03T17:35:18.404Z,29.86
2018-07-03T17:37:47.791Z,29.85
2018-07-03T17:40:28.335Z,29.71
2018-07-03T17:44:04.228Z,29.57
2018-07-03T17:46:33.495Z,29.40
2018-07-03T17:49:02.661Z,29.20
2018-07-03T17:51:32.056Z,28.75
2018-07-03T17:54:01.247Z,28.61
2018-07-03T17:56:30.459Z,28.43
2018-07-03T17:58:59.951Z,28.27
2018-07-03T18:01:29.131Z,28.10
2018-07-03T18:03:58.356Z,27.95
2018-07-03T18:06:27.536Z,27.71
2018-07-03T18:08:56.707Z,27.58
2018-07-03T18:11:25.878Z,27.55
2018-07-03T18:13:55.070Z,27.58
2018-07-03T18:16:24.257Z,27.43
2018-07-03T18:18:58.695Z,27.50
2018-07-03T18:21:28.589Z,27.34
2018-07-03T18:23:57.791Z,26.89
2018-07-03T18:26:26.939Z,26.83
2018-07-03T18:28:56.335Z,26.51
2018-07-03T18:31:25.801Z,26.23
2018-07-03T18:33:54.990Z,25.97
2018-07-03T18:36:24.258Z,25.86
2018-07-03T18:38:53.792Z,25.44
2018-07-03T18:41:22.970Z,25.11
2018-07-03T18:43:52.196Z,24.74
2018-07-03T18:46:21.925Z,24.38
2018-07-03T18:48:51.167Z,24.03
2018-07-03T18:51:20.357Z,23.85
2018-07-03T18:53:49.795Z,23.66
2018-07-03T18:56:18.975Z,23.51
2018-07-03T18:58:48.315Z,23.28
2018-07-03T19:01:17.862Z,23.02
2018-07-03T19:03:47.238Z,22.76
2018-07-03T19:06:16.423Z,22.57
2018-07-03T19:08:45.615Z,22.39
2018-07-03T19:11:14.811Z,22.18
2018-07-03T19:13:44.222Z,21.87
2018-07-03T19:16:13.400Z,21.71
2018-07-03T19:18:42.696Z,21.53
2018-07-03T19:21:11.943Z,21.42
2018-07-03T19:23:41.116Z,21.23
2018-07-03T19:26:10.620Z,21.17
2018-07-03T19:28:39.908Z,20.93
2018-07-03T19:31:09.326Z,20.74
2018-07-03T19:33:38.451Z,20.63
2018-07-03T19:36:07.860Z,20.42
2018-07-03T19:38:37.320Z,20.37
2018-07-03T19:41:06.519Z,20.43
2018-07-03T19:43:36.937Z,20.33
2018-07-03T19:46:06.611Z,20.14
2018-07-03T19:48:35.787Z,19.93
2018-07-03T19:51:05.075Z,19.89
2018-07-03T19:53:34.138Z,20.02
2018-07-03T19:56:03.368Z,20.08
2018-07-03T19:58:32.523Z,20.19
2018-07-03T20:01:01.858Z,20.27
2018-07-03T20:03:31.819Z,19.78
2018-07-03T20:06:01.036Z,19.60
2018-07-03T20:08:30.239Z,19.52
2018-07-03T20:10:59.432Z,19.41
2018-07-03T20:13:28.982Z,19.32
2018-07-03T20:15:58.451Z,19.14
2018-07-03T20:18:28.291Z,19.23
2018-07-03T20:20:57.506Z,19.30
2018-07-03T20:23:26.931Z,19.45
2018-07-03T20:25:56.252Z,19.35
2018-07-03T20:28:25.414Z,19.32
2018-07-03T20:30:55.247Z,19.13
2018-07-03T20:33:24.434Z,19.17
2018-07-03T20:35:53.611Z,19.07
2018-07-03T20:38:23.310Z,19.05
2018-07-03T20:40:58.335Z,19.06
2018-07-03T20:43:29.075Z,18.86
2018-07-03T20:45:58.317Z,18.68
2018-07-03T20:48:27.981Z,18.65
2018-07-03T20:50:57.760Z,18.54
2018-07-03T20:53:27.107Z,18.60
2018-07-03T20:55:56.687Z,18.45
2018-07-03T20:58:26.345Z,18.32
2018-07-03T21:00:55.619Z,18.34
2018-07-03T21:03:25.032Z,18.34
2018-07-03T21:05:54.244Z,18.30
2018-07-03T21:08:23.537Z,18.15
2018-07-03T21:10:52.707Z,17.99
2018-07-03T21:13:21.921Z,18.06
2018-07-03T21:15:51.166Z,18.17
2018-07-03T21:18:20.371Z,18.14
2018-07-03T21:20:49.535Z,18.27
2018-07-03T21:23:19.095Z,18.17
2018-07-03T21:25:48.256Z,17.94
2018-07-03T21:28:17.653Z,17.79
2018-07-03T21:30:46.846Z,17.73
2018-07-03T21:33:16.566Z,17.94
2018-07-03T21:35:45.927Z,17.88
2018-07-03T21:38:15.096Z,17.64
2018-07-03T21:40:44.249Z,17.55
2018-07-03T21:43:13.543Z,17.68
2018-07-03T21:45:43.183Z,17.73
2018-07-03T21:48:12.355Z,17.61
2018-07-03T21:50:41.509Z,17.47
2018-07-03T21:53:10.684Z,17.08
2018-07-03T21:55:40.151Z,17.15
2018-07-03T21:58:09.310Z,17.19
2018-07-03T22:00:39.751Z,17.32
2018-07-03T22:03:11.039Z,17.18
2018-07-03T22:05:40.827Z,17.02
2018-07-03T22:08:10.181Z,17.21
2018-07-03T22:10:39.355Z,17.44
2018-07-03T22:13:08.538Z,17.50
2018-07-03T22:15:37.727Z,17.55
2018-07-03T22:18:07.280Z,17.60
2018-07-03T22:20:36.450Z,17.50
2018-07-03T22:23:05.626Z,17.46
2018-07-03T22:25:34.803Z,17.42
2018-07-03T22:28:04.184Z,17.54
2018-07-03T22:30:33.351Z,17.42
2018-07-03T22:33:02.512Z,17.30
2018-07-03T22:35:31.727Z,17.31
2018-07-03T22:38:01.119Z,17.29
2018-07-03T22:40:30.295Z,17.38
2018-07-03T22:42:59.459Z,17.45
2018-07-03T22:45:28.633Z,17.52
2018-07-03T22:47:57.771Z,17.63
2018-07-03T22:50:26.956Z,17.79
2018-07-03T22:52:56.143Z,17.77
2018-07-03T22:55:25.307Z,17.61
2018-07-03T22:57:54.459Z,17.74
2018-07-03T23:00:23.739Z,17.83
2018-07-03T23:02:53.891Z,17.86
2018-07-03T23:05:23.063Z,17.89
2018-07-03T23:07:52.290Z,17.82
2018-07-03T23:10:21.707Z,17.88
2018-07-03T23:12:50.867Z,17.83
2018-07-03T23:15:20.300Z,17.67
2018-07-03T23:17:49.472Z,17.55
2018-07-03T23:20:18.603Z,17.44
2018-07-03T23:22:47.786Z,17.39
2018-07-03T23:25:17.219Z,17.42
2018-07-03T23:27:46.383Z,17.52
2018-07-03T23:30:16.235Z,17.54
2018-07-03T23:32:45.827Z,17.54
2018-07-03T23:35:14.979Z,17.50
2018-07-03T23:37:44.318Z,17.38
2018-07-03T23:40:13.509Z,17.33
2018-07-03T23:42:42.744Z,17.26
2018-07-03T23:45:12.316Z,17.15
2018-07-03T23:47:53.007Z,17.26
2018-07-03T23:50:39.441Z,17.13
2018-07-03T23:53:26.079Z,17.06
2018-07-03T23:56:12.545Z,16.94
2018-07-03T23:58:58.995Z,16.81
